sensor_id;sensor_type;location;lat;lon;timestamp;pressure;altitude;pressure_sealevel;temperature;humidity
21640;BME280;10981;45.462;10.974;2024-03-07T00:01:56;100741.16;;;8.01;100.00
21640;BME280;10981;45.462;10.974;2024-03-07T00:04:24;100742.91;;;8.00;100.00
21640;BME280;10981;45.462;10.974;2024-03-07T00:06:52;100743.13;;;7.97;100.00
21640;BME280;10981;45.462;10.974;2024-03-07T00:09:21;100746.78;;;7.95;100.00
21640;BME280;10981;45.462;10.974;2024-03-07T00:11:52;100741.47;;;7.96;100.00
21640;BME280;10981;45.462;10.974;2024-03-07T00:14:20;100739.72;;;7.97;100.00
21640;BME280;10981;45.462;10.974;2024-03-07T00:16:49;100734.56;;;7.95;100.00
21640;BME280;10981;45.462;10.974;2024-03-07T00:19:17;100740.63;;;7.96;100.00
21640;BME280;10981;45.462;10.974;2024-03-07T00:21:45;100738.84;;;7.96;100.00
21640;BME280;10981;45.462;10.974;2024-03-07T00:24:14;100741.78;;;7.92;100.00
21640;BME280;10981;45.462;10.974;2024-03-07T00:26:42;100743.13;;;7.84;100.00
21640;BME280;10981;45.462;10.974;2024-03-07T00:29:13;100738.88;;;7.83;100.00
21640;BME280;10981;45.462;10.974;2024-03-07T00:31:42;100741.69;;;7.80;100.00
21640;BME280;10981;45.462;10.974;2024-03-07T00:34:11;100740.00;;;7.79;100.00
21640;BME280;10981;45.462;10.974;2024-03-07T00:36:47;100740.22;;;7.76;100.00
21640;BME280;10981;45.462;10.974;2024-03-07T00:39:15;100747.41;;;7.73;100.00
21640;BME280;10981;45.462;10.974;2024-03-07T00:41:43;100740.66;;;7.70;100.00
21640;BME280;10981;45.462;10.974;2024-03-07T00:44:12;100742.28;;;7.71;100.00
21640;BME280;10981;45.462;10.974;2024-03-07T00:46:40;100743.34;;;7.68;100.00
21640;BME280;10981;45.462;10.974;2024-03-07T00:49:09;100746.03;;;7.67;100.00
21640;BME280;10981;45.462;10.974;2024-03-07T00:51:37;100736.78;;;7.63;100.00
21640;BME280;10981;45.462;10.974;2024-03-07T00:54:07;100740.44;;;7.60;100.00
21640;BME280;10981;45.462;10.974;2024-03-07T00:56:35;100741.56;;;7.56;100.00
21640;BME280;10981;45.462;10.974;2024-03-07T00:59:04;100739.78;;;7.57;100.00
21640;BME280;10981;45.462;10.974;2024-03-07T01:01:33;100738.97;;;7.56;100.00
21640;BME280;10981;45.462;10.974;2024-03-07T01:04:04;100738.13;;;7.56;100.00
21640;BME280;10981;45.462;10.974;2024-03-07T01:06:32;100738.22;;;7.54;100.00
21640;BME280;10981;45.462;10.974;2024-03-07T01:09:00;100734.69;;;7.55;100.00
21640;BME280;10981;45.462;10.974;2024-03-07T01:11:29;100739.91;;;7.55;100.00
21640;BME280;10981;45.462;10.974;2024-03-07T01:13:57;100736.88;;;7.48;100.00
21640;BME280;10981;45.462;10.974;2024-03-07T01:16:25;100733.94;;;7.40;100.00
21640;BME280;10981;45.462;10.974;2024-03-07T01:18:53;100731.84;;;7.32;100.00
21640;BME280;10981;45.462;10.974;2024-03-07T01:21:22;100729.53;;;7.28;100.00
21640;BME280;10981;45.462;10.974;2024-03-07T01:23:52;100728.09;;;7.24;100.00
21640;BME280;10981;45.462;10.974;2024-03-07T01:26:21;100727.44;;;7.20;100.00
21640;BME280;10981;45.462;10.974;2024-03-07T01:28:50;100722.34;;;7.18;100.00
21640;BME280;10981;45.462;10.974;2024-03-07T01:31:18;100727.66;;;7.17;100.00
21640;BME280;10981;45.462;10.974;2024-03-07T01:33:49;100725.16;;;7.15;100.00
21640;BME280;10981;45.462;10.974;2024-03-07T01:36:19;100717.44;;;7.14;100.00
21640;BME280;10981;45.462;10.974;2024-03-07T01:38:48;100714.00;;;7.13;100.00
21640;BME280;10981;45.462;10.974;2024-03-07T01:41:17;100709.84;;;7.11;100.00
21640;BME280;10981;45.462;10.974;2024-03-07T01:43:45;100706.81;;;7.04;100.00
21640;BME280;10981;45.462;10.974;2024-03-07T01:46:14;100708.88;;;6.99;100.00
21640;BME280;10981;45.462;10.974;2024-03-07T01:48:42;100707.41;;;6.95;100.00
21640;BME280;10981;45.462;10.974;2024-03-07T01:51:11;100708.75;;;6.87;100.00
21640;BME280;10981;45.462;10.974;2024-03-07T01:53:40;100704.47;;;6.86;100.00
21640;BME280;10981;45.462;10.974;2024-03-07T01:56:08;100705.50;;;6.84;100.00
21640;BME280;10981;45.462;10.974;2024-03-07T01:58:38;100703.94;;;6.81;100.00
21640;BME280;10981;45.462;10.974;2024-03-07T02:01:07;100693.09;;;6.75;100.00
21640;BME280;10981;45.462;10.974;2024-03-07T02:03:36;100691.53;;;6.72;100.00
21640;BME280;10981;45.462;10.974;2024-03-07T02:06:04;100691.63;;;6.70;100.00
21640;BME280;10981;45.462;10.974;2024-03-07T02:08:35;100682.47;;;6.65;100.00
21640;BME280;10981;45.462;10.974;2024-03-07T02:11:04;100688.78;;;6.61;100.00
21640;BME280;10981;45.462;10.974;2024-03-07T02:13:33;100690.66;;;6.59;100.00
21640;BME280;10981;45.462;10.974;2024-03-07T02:16:01;100686.47;;;6.56;100.00
21640;BME280;10981;45.462;10.974;2024-03-07T02:18:30;100686.47;;;6.56;100.00
21640;BME280;10981;45.462;10.974;2024-03-07T02:20:58;100678.69;;;6.56;100.00
21640;BME280;10981;45.462;10.974;2024-03-07T02:23:30;100676.28;;;6.53;100.00
21640;BME280;10981;45.462;10.974;2024-03-07T02:25:59;100679.06;;;6.50;100.00
21640;BME280;10981;45.462;10.974;2024-03-07T02:28:27;100680.94;;;6.48;100.00
21640;BME280;10981;45.462;10.974;2024-03-07T02:30:55;100678.41;;;6.46;100.00
21640;BME280;10981;45.462;10.974;2024-03-07T02:33:24;100673.22;;;6.46;100.00
21640;BME280;10981;45.462;10.974;2024-03-07T02:35:52;100676.66;;;6.47;100.00
21640;BME280;10981;45.462;10.974;2024-03-07T02:38:20;100680.94;;;6.48;100.00
21640;BME280;10981;45.462;10.974;2024-03-07T02:40:48;100673.88;;;6.50;100.00
21640;BME280;10981;45.462;10.974;2024-03-07T02:43:17;100682.50;;;6.50;100.00
21640;BME280;10981;45.462;10.974;2024-03-07T02:45:46;100672.94;;;6.51;100.00
21640;BME280;10981;45.462;10.974;2024-03-07T02:48:14;100684.16;;;6.51;100.00
21640;BME280;10981;45.462;10.974;2024-03-07T02:50:42;100676.28;;;6.53;100.00
21640;BME280;10981;45.462;10.974;2024-03-07T02:53:10;100675.97;;;6.58;100.00
21640;BME280;10981;45.462;10.974;2024-03-07T02:55:39;100675.78;;;6.61;100.00
21640;BME280;10981;45.462;10.974;2024-03-07T02:58:07;100670.59;;;6.61;100.00
21640;BME280;10981;45.462;10.974;2024-03-07T03:00:35;100673.91;;;6.63;100.00
21640;BME280;10981;45.462;10.974;2024-03-07T03:03:04;100669.63;;;6.62;100.00
21640;BME280;10981;45.462;10.974;2024-03-07T03:05:32;100669.84;;;6.59;100.00
21640;BME280;10981;45.462;10.974;2024-03-07T03:08:00;100669.84;;;6.59;100.00
21640;BME280;10981;45.462;10.974;2024-03-07T03:10:28;100674.31;;;6.57;100.00
21640;BME280;10981;45.462;10.974;2024-03-07T03:12:58;100668.38;;;6.54;100.00
21640;BME280;10981;45.462;10.974;2024-03-07T03:15:28;100671.69;;;6.57;100.00
21640;BME280;10981;45.462;10.974;2024-03-07T03:17:58;100672.56;;;6.57;100.00
21640;BME280;10981;45.462;10.974;2024-03-07T03:20:30;100673.69;;;6.53;100.00
21640;BME280;10981;45.462;10.974;2024-03-07T03:23:08;100676.56;;;6.48;100.00
21640;BME280;10981;45.462;10.974;2024-03-07T03:25:48;100675.00;;;6.46;100.00
21640;BME280;10981;45.462;10.974;2024-03-07T03:28:18;100675.38;;;6.40;100.00
21640;BME280;10981;45.462;10.974;2024-03-07T03:30:50;100676.41;;;6.37;100.00
21640;BME280;10981;45.462;10.974;2024-03-07T03:33:20;100670.47;;;6.35;100.00
21640;BME280;10981;45.462;10.974;2024-03-07T03:35:51;100679.00;;;6.37;100.00
21640;BME280;10981;45.462;10.974;2024-03-07T03:38:19;100674.56;;;6.39;100.00
21640;BME280;10981;45.462;10.974;2024-03-07T03:40:48;100680.03;;;6.34;100.00
21640;BME280;10981;45.462;10.974;2024-03-07T03:43:16;100683.88;;;6.29;100.00
21640;BME280;10981;45.462;10.974;2024-03-07T03:45:45;100682.38;;;6.25;100.00
21640;BME280;10981;45.462;10.974;2024-03-07T03:48:15;100676.25;;;6.26;100.00
21640;BME280;10981;45.462;10.974;2024-03-07T03:50:44;100677.00;;;6.28;100.00
21640;BME280;10981;45.462;10.974;2024-03-07T03:53:14;100675.44;;;6.25;100.00
21640;BME280;10981;45.462;10.974;2024-03-07T03:55:43;100676.34;;;6.24;100.00
21640;BME280;10981;45.462;10.974;2024-03-07T03:58:11;100671.97;;;6.25;100.00
21640;BME280;10981;45.462;10.974;2024-03-07T04:00:40;100674.56;;;6.25;100.00
21640;BME280;10981;45.462;10.974;2024-03-07T04:03:10;100673.66;;;6.26;100.00
21640;BME280;10981;45.462;10.974;2024-03-07T04:05:38;100680.53;;;6.27;100.00
21640;BME280;10981;45.462;10.974;2024-03-07T04:08:09;100671.59;;;6.31;100.00
21640;BME280;10981;45.462;10.974;2024-03-07T04:10:38;100669.53;;;6.36;100.00
21640;BME280;10981;45.462;10.974;2024-03-07T04:13:07;100667.88;;;6.35;100.00
21640;BME280;10981;45.462;10.974;2024-03-07T04:15:35;100680.84;;;6.35;100.00
21640;BME280;10981;45.462;10.974;2024-03-07T04:18:09;100671.22;;;6.37;100.00
21640;BME280;10981;45.462;10.974;2024-03-07T04:20:40;100669.16;;;6.42;100.00
21640;BME280;10981;45.462;10.974;2024-03-07T04:23:08;100669.06;;;6.44;100.00
21640;BME280;10981;45.462;10.974;2024-03-07T04:25:39;100673.31;;;6.45;100.00
21640;BME280;10981;45.462;10.974;2024-03-07T04:28:08;100661.91;;;6.47;100.00
21640;BME280;10981;45.462;10.974;2024-03-07T04:30:42;100669.31;;;6.53;100.00
21640;BME280;10981;45.462;10.974;2024-03-07T04:33:10;100677.53;;;6.60;100.00
21640;BME280;10981;45.462;10.974;2024-03-07T04:35:39;100674.56;;;6.66;100.00
21640;BME280;10981;45.462;10.974;2024-03-07T04:38:07;100678.22;;;6.77;100.00
21640;BME280;10981;45.462;10.974;2024-03-07T04:40:39;100679.50;;;6.84;100.00
21640;BME280;10981;45.462;10.974;2024-03-07T04:43:07;100682.75;;;6.87;100.00
21640;BME280;10981;45.462;10.974;2024-03-07T04:45:36;100684.31;;;6.90;100.00
21640;BME280;10981;45.462;10.974;2024-03-07T04:48:04;100682.41;;;6.92;100.00
21640;BME280;10981;45.462;10.974;2024-03-07T04:50:33;100686.69;;;6.93;100.00
21640;BME280;10981;45.462;10.974;2024-03-07T04:53:01;100691.78;;;6.95;100.00
21640;BME280;10981;45.462;10.974;2024-03-07T04:55:30;100694.31;;;6.96;100.00
21640;BME280;10981;45.462;10.974;2024-03-07T04:57:58;100686.50;;;6.96;100.00
21640;BME280;10981;45.462;10.974;2024-03-07T05:00:26;100695.34;;;6.94;100.00
21640;BME280;10981;45.462;10.974;2024-03-07T05:02:57;100697.41;;;6.89;100.00
21640;BME280;10981;45.462;10.974;2024-03-07T05:05:25;100699.28;;;6.86;100.00
21640;BME280;10981;45.462;10.974;2024-03-07T05:07:54;100698.53;;;6.84;100.00
21640;BME280;10981;45.462;10.974;2024-03-07T05:10:24;100697.81;;;6.82;100.00
21640;BME280;10981;45.462;10.974;2024-03-07T05:12:53;100703.94;;;6.81;100.00
21640;BME280;10981;45.462;10.974;2024-03-07T05:15:21;100706.44;;;6.83;100.00
21640;BME280;10981;45.462;10.974;2024-03-07T05:17:54;100709.63;;;6.74;100.00
21640;BME280;10981;45.462;10.974;2024-03-07T05:20:24;100705.66;;;6.68;100.00
21640;BME280;10981;45.462;10.974;2024-03-07T05:22:52;100708.44;;;6.65;100.00
21640;BME280;10981;45.462;10.974;2024-03-07T05:25:21;100710.50;;;6.60;100.00
21640;BME280;10981;45.462;10.974;2024-03-07T05:27:54;100708.94;;;6.57;100.00
21640;BME280;10981;45.462;10.974;2024-03-07T05:30:23;100703.00;;;6.55;100.00
21640;BME280;10981;45.462;10.974;2024-03-07T05:32:53;100705.81;;;6.52;100.00
21640;BME280;10981;45.462;10.974;2024-03-07T05:35:22;100712.84;;;6.50;100.00
21640;BME280;10981;45.462;10.974;2024-03-07T05:37:50;100709.31;;;6.51;100.00
21640;BME280;10981;45.462;10.974;2024-03-07T05:40:20;100708.88;;;6.44;100.00
21640;BME280;10981;45.462;10.974;2024-03-07T05:42:48;100717.78;;;6.40;100.00
21640;BME280;10981;45.462;10.974;2024-03-07T05:45:17;100708.41;;;6.37;100.00
21640;BME280;10981;45.462;10.974;2024-03-07T05:47:46;100711.13;;;6.36;100.00
21640;BME280;10981;45.462;10.974;2024-03-07T05:50:16;100714.47;;;6.38;100.00
21640;BME280;10981;45.462;10.974;2024-03-07T05:52:44;100712.59;;;6.40;100.00
21640;BME280;10981;45.462;10.974;2024-03-07T05:55:13;100715.94;;;6.42;100.00
21640;BME280;10981;45.462;10.974;2024-03-07T05:57:44;100719.34;;;6.43;100.00
21640;BME280;10981;45.462;10.974;2024-03-07T06:00:13;100716.69;;;6.44;100.00
21640;BME280;10981;45.462;10.974;2024-03-07T06:02:43;100730.41;;;6.46;100.00
21640;BME280;10981;45.462;10.974;2024-03-07T06:05:11;100723.53;;;6.45;100.00
21640;BME280;10981;45.462;10.974;2024-03-07T06:07:44;100725.19;;;6.46;100.00
21640;BME280;10981;45.462;10.974;2024-03-07T06:10:14;100730.03;;;6.52;100.00
21640;BME280;10981;45.462;10.974;2024-03-07T06:12:44;100741.06;;;6.56;100.00
21640;BME280;10981;45.462;10.974;2024-03-07T06:15:32;100740.41;;;6.52;100.00
21640;BME280;10981;45.462;10.974;2024-03-07T06:18:00;100745.06;;;6.47;100.00
21640;BME280;10981;45.462;10.974;2024-03-07T06:20:29;100737.28;;;6.47;100.00
21640;BME280;10981;45.462;10.974;2024-03-07T06:22:57;100739.38;;;6.55;100.00
21640;BME280;10981;45.462;10.974;2024-03-07T06:25:27;100744.66;;;6.68;100.00
21640;BME280;10981;45.462;10.974;2024-03-07T06:28:06;100740.25;;;6.83;100.00
21640;BME280;10981;45.462;10.974;2024-03-07T06:30:38;100740.38;;;6.94;100.00
21640;BME280;10981;45.462;10.974;2024-03-07T06:33:07;100737.94;;;7.06;100.00
21640;BME280;10981;45.462;10.974;2024-03-07T06:35:36;100746.06;;;7.14;100.00
21640;BME280;10981;45.462;10.974;2024-03-07T06:38:07;100748.59;;;7.15;100.00
21640;BME280;10981;45.462;10.974;2024-03-07T06:40:40;100747.34;;;7.21;100.00
21640;BME280;10981;45.462;10.974;2024-03-07T06:43:09;100750.38;;;7.28;100.00
21640;BME280;10981;45.462;10.974;2024-03-07T06:45:41;100742.25;;;7.32;100.00
21640;BME280;10981;45.462;10.974;2024-03-07T06:48:14;100748.75;;;7.40;100.00
21640;BME280;10981;45.462;10.974;2024-03-07T06:50:42;100746.03;;;7.41;100.00
21640;BME280;10981;45.462;10.974;2024-03-07T06:53:15;100751.13;;;7.43;100.00
21640;BME280;10981;45.462;10.974;2024-03-07T06:55:44;100752.66;;;7.32;100.00
21640;BME280;10981;45.462;10.974;2024-03-07T06:58:13;100743.91;;;7.20;100.00
21640;BME280;10981;45.462;10.974;2024-03-07T07:00:41;100741.50;;;7.17;100.00
21640;BME280;10981;45.462;10.974;2024-03-07T07:03:09;100743.50;;;7.27;100.00
21640;BME280;10981;45.462;10.974;2024-03-07T07:05:39;100742.47;;;7.29;100.00
21640;BME280;10981;45.462;10.974;2024-03-07T07:08:08;100749.97;;;7.34;100.00
21640;BME280;10981;45.462;10.974;2024-03-07T07:10:37;100745.91;;;7.30;100.00
21640;BME280;10981;45.462;10.974;2024-03-07T07:13:06;100743.09;;;7.33;100.00
21640;BME280;10981;45.462;10.974;2024-03-07T07:15:34;100752.16;;;7.40;100.00
21640;BME280;10981;45.462;10.974;2024-03-07T07:18:05;100751.53;;;7.49;100.00
21640;BME280;10981;45.462;10.974;2024-03-07T07:20:35;100748.13;;;7.62;100.00
21640;BME280;10981;45.462;10.974;2024-03-07T07:23:04;100755.13;;;7.74;100.00
21640;BME280;10981;45.462;10.974;2024-03-07T07:25:33;100756.91;;;7.87;100.00
21640;BME280;10981;45.462;10.974;2024-03-07T07:28:03;100756.56;;;8.04;100.00
21640;BME280;10981;45.462;10.974;2024-03-07T07:30:36;100753.94;;;8.17;100.00
21640;BME280;10981;45.462;10.974;2024-03-07T07:33:04;100754.38;;;8.24;100.00
21640;BME280;10981;45.462;10.974;2024-03-07T07:35:33;100754.38;;;8.24;100.00
21640;BME280;10981;45.462;10.974;2024-03-07T07:38:03;100756.22;;;8.34;100.00
21640;BME280;10981;45.462;10.974;2024-03-07T07:40:31;100756.13;;;8.49;100.00
21640;BME280;10981;45.462;10.974;2024-03-07T07:43:01;100753.94;;;8.80;100.00
21640;BME280;10981;45.462;10.974;2024-03-07T07:45:29;100754.25;;;8.99;100.00
21640;BME280;10981;45.462;10.974;2024-03-07T07:47:57;100756.94;;;9.22;100.00
21640;BME280;10981;45.462;10.974;2024-03-07T07:50:27;100753.00;;;9.41;100.00
21640;BME280;10981;45.462;10.974;2024-03-07T07:52:57;100761.78;;;9.51;100.00
21640;BME280;10981;45.462;10.974;2024-03-07T07:55:27;100748.31;;;9.69;100.00
21640;BME280;10981;45.462;10.974;2024-03-07T07:57:57;100744.25;;;9.76;100.00
21640;BME280;10981;45.462;10.974;2024-03-07T08:00:27;100750.44;;;9.86;100.00
21640;BME280;10981;45.462;10.974;2024-03-07T08:03:02;100747.72;;;10.10;100.00
21640;BME280;10981;45.462;10.974;2024-03-07T08:05:33;100748.78;;;10.30;100.00
21640;BME280;10981;45.462;10.974;2024-03-07T08:08:04;100751.28;;;10.43;100.00
21640;BME280;10981;45.462;10.974;2024-03-07T08:10:37;100747.34;;;10.60;100.00
21640;BME280;10981;45.462;10.974;2024-03-07T08:13:06;100748.28;;;10.71;100.00
21640;BME280;10981;45.462;10.974;2024-03-07T08:15:34;100752.56;;;10.72;100.00
21640;BME280;10981;45.462;10.974;2024-03-07T08:18:03;100750.41;;;10.77;100.00
21640;BME280;10981;45.462;10.974;2024-03-07T08:20:38;100753.44;;;10.93;100.00
21640;BME280;10981;45.462;10.974;2024-03-07T08:23:08;100754.34;;;11.04;100.00
21640;BME280;10981;45.462;10.974;2024-03-07T08:25:37;100748.00;;;11.18;100.00
21640;BME280;10981;45.462;10.974;2024-03-07T08:28:08;100757.56;;;11.28;100.00
21640;BME280;10981;45.462;10.974;2024-03-07T08:30:36;100757.84;;;11.25;100.00
21640;BME280;10981;45.462;10.974;2024-03-07T08:33:05;100754.69;;;11.10;100.00
21640;BME280;10981;45.462;10.974;2024-03-07T08:35:34;100756.59;;;11.08;100.00
21640;BME280;10981;45.462;10.974;2024-03-07T08:38:03;100758.06;;;11.01;100.00
21640;BME280;10981;45.462;10.974;2024-03-07T08:40:33;100761.16;;;10.95;100.00
21640;BME280;10981;45.462;10.974;2024-03-07T08:43:03;100764.75;;;10.94;100.00
21640;BME280;10981;45.462;10.974;2024-03-07T08:45:32;100759.72;;;11.02;100.00
21640;BME280;10981;45.462;10.974;2024-03-07T08:48:03;100760.72;;;11.11;100.00
21640;BME280;10981;45.462;10.974;2024-03-07T08:50:38;100760.25;;;11.17;100.00
21640;BME280;10981;45.462;10.974;2024-03-07T08:53:07;100762.00;;;11.28;100.00
21640;BME280;10981;45.462;10.974;2024-03-07T08:55:37;100764.28;;;11.42;100.00
21640;BME280;10981;45.462;10.974;2024-03-07T08:58:05;100766.78;;;11.44;100.00
21640;BME280;10981;45.462;10.974;2024-03-07T09:00:35;100763.84;;;11.37;100.00
21640;BME280;10981;45.462;10.974;2024-03-07T09:03:07;100762.19;;;11.36;100.00
21640;BME280;10981;45.462;10.974;2024-03-07T09:05:40;100762.19;;;11.36;100.00
21640;BME280;10981;45.462;10.974;2024-03-07T09:08:09;100767.22;;;11.49;100.00
21640;BME280;10981;45.462;10.974;2024-03-07T09:10:37;100769.91;;;11.59;100.00
21640;BME280;10981;45.462;10.974;2024-03-07T09:13:11;100769.47;;;11.75;100.00
21640;BME280;10981;45.462;10.974;2024-03-07T09:15:39;100770.66;;;11.92;100.00
21640;BME280;10981;45.462;10.974;2024-03-07T09:18:08;100775.19;;;11.90;100.00
21640;BME280;10981;45.462;10.974;2024-03-07T09:20:37;100772.66;;;12.00;100.00
21640;BME280;10981;45.462;10.974;2024-03-07T09:23:07;100774.00;;;11.94;100.00
21640;BME280;10981;45.462;10.974;2024-03-07T09:25:35;100776.22;;;11.99;100.00
21640;BME280;10981;45.462;10.974;2024-03-07T09:28:04;100780.00;;;12.06;100.00
21640;BME280;10981;45.462;10.974;2024-03-07T09:30:34;100774.91;;;12.04;100.00
21640;BME280;10981;45.462;10.974;2024-03-07T09:33:07;100770.25;;;12.18;100.00
21640;BME280;10981;45.462;10.974;2024-03-07T09:35:39;100770.00;;;12.31;100.00
21640;BME280;10981;45.462;10.974;2024-03-07T09:38:07;100775.56;;;12.37;100.00
21640;BME280;10981;45.462;10.974;2024-03-07T09:40:36;100773.00;;;12.57;100.00
21640;BME280;10981;45.462;10.974;2024-03-07T09:43:06;100772.47;;;12.73;100.00
21640;BME280;10981;45.462;10.974;2024-03-07T09:45:38;100775.66;;;12.77;100.00
21640;BME280;10981;45.462;10.974;2024-03-07T09:48:07;100773.31;;;12.83;100.00
21640;BME280;10981;45.462;10.974;2024-03-07T09:50:37;100767.50;;;12.70;100.00
21640;BME280;10981;45.462;10.974;2024-03-07T09:53:06;100776.91;;;12.82;100.00
21640;BME280;10981;45.462;10.974;2024-03-07T09:55:36;100781.47;;;12.90;100.00
21640;BME280;10981;45.462;10.974;2024-03-07T09:58:06;100779.28;;;13.05;100.00
21640;BME280;10981;45.462;10.974;2024-03-07T10:00:38;100776.94;;;13.21;100.00
21640;BME280;10981;45.462;10.974;2024-03-07T10:03:12;100779.69;;;13.30;100.00
21640;BME280;10981;45.462;10.974;2024-03-07T10:05:44;100776.38;;;13.28;100.00
21640;BME280;10981;45.462;10.974;2024-03-07T10:08:12;100774.88;;;13.54;100.00
21640;BME280;10981;45.462;10.974;2024-03-07T10:10:44;100777.59;;;13.63;100.00
21640;BME280;10981;45.462;10.974;2024-03-07T10:13:15;100779.69;;;13.59;100.00
21640;BME280;10981;45.462;10.974;2024-03-07T10:15:45;100774.72;;;13.66;100.00
21640;BME280;10981;45.462;10.974;2024-03-07T10:18:13;100778.31;;;13.65;100.00
21640;BME280;10981;45.462;10.974;2024-03-07T10:20:43;100782.44;;;13.77;100.00
21640;BME280;10981;45.462;10.974;2024-03-07T10:23:19;100779.25;;;13.73;100.00
21640;BME280;10981;45.462;10.974;2024-03-07T10:25:49;100782.31;;;13.59;100.00
21640;BME280;10981;45.462;10.974;2024-03-07T10:28:18;100775.81;;;13.63;100.00
21640;BME280;10981;45.462;10.974;2024-03-07T10:30:46;100782.16;;;13.70;100.00
21640;BME280;10981;45.462;10.974;2024-03-07T10:33:16;100778.09;;;13.86;100.00
21640;BME280;10981;45.462;10.974;2024-03-07T10:35:48;100781.66;;;13.95;100.00
21640;BME280;10981;45.462;10.974;2024-03-07T10:38:17;100779.88;;;13.95;100.00
21640;BME280;10981;45.462;10.974;2024-03-07T10:40:48;100778.66;;;13.89;100.00
21640;BME280;10981;45.462;10.974;2024-03-07T10:43:23;100776.63;;;13.73;100.00
21640;BME280;10981;45.462;10.974;2024-03-07T10:45:51;100772.78;;;13.58;100.00
21640;BME280;10981;45.462;10.974;2024-03-07T10:48:20;100776.31;;;13.77;100.00
21640;BME280;10981;45.462;10.974;2024-03-07T10:51:21;100778.38;;;13.93;100.00
21640;BME280;10981;45.462;10.974;2024-03-07T10:54:12;100783.63;;;13.93;100.00
21640;BME280;10981;45.462;10.974;2024-03-07T10:59:22;100776.94;;;13.31;100.00
21640;BME280;10981;45.462;10.974;2024-03-07T11:04:41;100781.22;;;13.32;100.00
21640;BME280;10981;45.462;10.974;2024-03-07T11:07:10;100778.31;;;13.45;100.00
21640;BME280;10981;45.462;10.974;2024-03-07T11:09:40;100772.47;;;13.71;100.00
21640;BME280;10981;45.462;10.974;2024-03-07T11:12:10;100774.16;;;13.72;100.00
21640;BME280;10981;45.462;10.974;2024-03-07T11:14:40;100775.44;;;13.48;100.00
21640;BME280;10981;45.462;10.974;2024-03-07T11:17:11;100771.84;;;13.49;100.00
21640;BME280;10981;45.462;10.974;2024-03-07T11:19:41;100764.75;;;13.50;100.00
21640;BME280;10981;45.462;10.974;2024-03-07T11:22:10;100768.75;;;13.64;100.00
21640;BME280;10981;45.462;10.974;2024-03-07T11:25:09;100769.28;;;13.77;100.00
21640;BME280;10981;45.462;10.974;2024-03-07T11:27:39;100770.22;;;13.86;100.00
21640;BME280;10981;45.462;10.974;2024-03-07T11:30:18;100758.41;;;14.00;100.00
21640;BME280;10981;45.462;10.974;2024-03-07T11:32:52;100765.63;;;13.98;100.00
21640;BME280;10981;45.462;10.974;2024-03-07T11:35:35;100757.66;;;14.07;100.00
21640;BME280;10981;45.462;10.974;2024-03-07T11:38:07;100756.81;;;14.17;100.00
21640;BME280;10981;45.462;10.974;2024-03-07T11:43:07;100748.19;;;14.52;100.00
21640;BME280;10981;45.462;10.974;2024-03-07T11:45:35;100747.44;;;14.60;100.00
21640;BME280;10981;45.462;10.974;2024-03-07T11:48:13;100738.88;;;14.76;100.00
21640;BME280;10981;45.462;10.974;2024-03-07T11:50:43;100734.38;;;14.86;100.00
21640;BME280;10981;45.462;10.974;2024-03-07T11:53:11;100736.41;;;14.93;100.00
21640;BME280;10981;45.462;10.974;2024-03-07T11:55:40;100732.06;;;14.65;100.00
21640;BME280;10981;45.462;10.974;2024-03-07T11:58:20;100730.25;;;14.84;100.00
21640;BME280;10981;45.462;10.974;2024-03-07T12:00:52;100727.84;;;15.09;100.00
21640;BME280;10981;45.462;10.974;2024-03-07T12:03:21;100728.25;;;15.22;100.00
21640;BME280;10981;45.462;10.974;2024-03-07T12:05:51;100724.91;;;15.38;100.00
21640;BME280;10981;45.462;10.974;2024-03-07T12:08:20;100725.94;;;15.72;100.00
21640;BME280;10981;45.462;10.974;2024-03-07T12:10:53;100721.72;;;15.52;100.00
21640;BME280;10981;45.462;10.974;2024-03-07T12:13:26;100726.69;;;15.56;100.00
21640;BME280;10981;45.462;10.974;2024-03-07T12:15:56;100717.91;;;15.47;100.00
21640;BME280;10981;45.462;10.974;2024-03-07T12:18:27;100717.06;;;15.73;100.00
21640;BME280;10981;45.462;10.974;2024-03-07T12:20:56;100718.09;;;15.53;100.00
21640;BME280;10981;45.462;10.974;2024-03-07T12:23:27;100710.72;;;15.13;100.00
21640;BME280;10981;45.462;10.974;2024-03-07T12:26:00;100710.31;;;15.26;100.00
21640;BME280;10981;45.462;10.974;2024-03-07T12:28:31;100703.75;;;15.48;100.00
21640;BME280;10981;45.462;10.974;2024-03-07T12:31:03;100699.50;;;15.81;100.00
21640;BME280;10981;45.462;10.974;2024-03-07T12:33:33;100690.41;;;16.18;100.00
21640;BME280;10981;45.462;10.974;2024-03-07T12:36:08;100688.66;;;16.60;100.00
21640;BME280;10981;45.462;10.974;2024-03-07T12:38:39;100685.91;;;15.76;100.00
21640;BME280;10981;45.462;10.974;2024-03-07T12:41:12;100683.06;;;15.35;100.00
21640;BME280;10981;45.462;10.974;2024-03-07T12:43:44;100678.44;;;15.37;100.00
21640;BME280;10981;45.462;10.974;2024-03-07T12:46:17;100678.38;;;15.55;100.00
21640;BME280;10981;45.462;10.974;2024-03-07T12:48:46;100664.91;;;15.84;100.00
21640;BME280;10981;45.462;10.974;2024-03-07T12:51:15;100664.50;;;16.14;100.00
21640;BME280;10981;45.462;10.974;2024-03-07T12:53:52;100657.28;;;16.49;100.00
21640;BME280;10981;45.462;10.974;2024-03-07T12:56:21;100663.94;;;17.03;100.00
21640;BME280;10981;45.462;10.974;2024-03-07T12:58:49;100655.00;;;17.28;100.00